Columbus, GA

9:40 AM EST on December 04, 2016 (GMT -0500)
Hilton Heights- Lynda Lane | | Change Station

Elev 387 ft 32.49 °N, 84.95 °W | Updated 12 seconds ago

Light Rain
Light Rain Mist
48.7 °F
Feels Like 48 °F
N
3.4
Wind Variable Wind from East
Gusts 4.9 mph

Today
High -- | Low -- °F
--% Chance of Precip.
Yesterday
High -- | Low -- °F
Precip. -- in
Pressure 30.10 in
Visibility 3.0 miles
Clouds Few 800 ft
Overcast 2400 ft
Windchill 48 °F
Dew Point 49 °F
Humidity 99%
Rainfall 0.13 in
Snow Depth Not available.
7:26 AM 5:34 PM
Waxing Crescent, 23% visible
SPECI KCSG 041433Z 11010KT 3SM -RA BR FEW008 OVC024 08/07 A3010 RMK AO2 P0001 T00830072
Pressure 30.10 in
Visibility 3.0 miles
Clouds Few 800 ft
Overcast 2400 ft
Windchill 48 °F
Dew Point 49 °F
Humidity 99%
Rainfall 0.13 in
Snow Depth Not available.
7:26 AM 5:34 PM
Waxing Crescent, 23% visible
SPECI KCSG 041433Z 11010KT 3SM -RA BR FEW008 OVC024 08/07 A3010 RMK AO2 P0001 T00830072

10-Day Weather Forecast

Almanac

Astronomy

Dec. 04, 2016 Rise Set
Actual Time
Civil Twilight
Nautical Twilight
Astronomical Twilight
Moon
Length of Visible Light
Length of Day
Tomorrow will be .
, % of the Moon is Illuminated

Today's Extremes

State Highs State Lows

Community

WunderPhotos

Upload Photos

1,955,598 photos uploaded!

WunderBlog® & News

Nearby

Air Quality

  Air Quality AQ Index Pollutant
Not available.

Snow Depth

Station Depth Elevation

Earthquake Activity

City Distance Mag. Time & Date
Minimum magnitude displayed is 2.5.

Coastal Water Temperatures

Place Temperature

Stations

Nearby Weather Stations

Station Location Temp. Windchill Dew Point Humidity Wind Precip. Elev Updated Type
                   

Watches & Warnings

There are currently no watches in effect.